Погода Игуаба-Грандина неделю

Рио-де-Жанейро, Бразилия

25 - 31 июля
  • 25июля
    Сегодня
    +15°
    +28°
    Ясно и безоблачно
    ВремяПогодаТемператураВлажностьДавлениеВетер, м/сВероятность осадков
    00:00Ясно и безоблачно+19°C94 %766 мм3.3 м/с4 %
    03:00Ясно и безоблачно+19°C93 %765 мм4.4 м/с8 %
    06:00Ясно и безоблачно+17°C91 %764 мм2.3 м/с2 %
    09:00Ясно и безоблачно+22°C74 %765 мм4.2 м/с5 %
    12:00Ясно и безоблачно+27°C55 %764 мм4.5 м/с5 %
    15:00Ясно и безоблачно+27°C55 %762 мм5.5 м/с5 %
    18:00Ясно и безоблачно+22°C76 %762 мм3.7 м/с5 %
    21:00Ясно и безоблачно+20°C89 %762 мм3.5 м/с5 %
  • 26июля
    Пятница
    +17°
    +28°
    Ясно и безоблачно
    ВремяПогодаТемператураВлажностьДавлениеВетер, м/сВероятность осадков
    00:00Ясно и безоблачно+19°C84 %762 мм4.0 м/с5 %
    03:00Ясно и безоблачно+18°C87 %761 мм3.7 м/с5 %
    06:00Ясно и безоблачно+16°C88 %761 мм1.9 м/с5 %
    09:00Ясно и безоблачно+23°C64 %763 мм3.2 м/с5 %
    12:00Ясно и безоблачно+28°C53 %762 мм3.5 м/с5 %
    15:00Ясно и безоблачно+27°C62 %761 мм4.9 м/с5 %
    18:00Практически безоблачно+22°C73 %761 мм3.0 м/с5 %
    21:00Облачно с прояснениями+20°C85 %762 мм2.3 м/с5 %
  • 27июля
    Суббота
    +18°
    +29°
    Небольшая облачность
    ВремяПогодаТемператураВлажностьДавлениеВетер, м/сВероятность осадков
    00:00Облачно с прояснениями+19°C93 %762 мм3.1 м/с5 %
    03:00Небольшая облачность+18°C89 %761 мм3.3 м/с5 %
    06:00Облачно с прояснениями+17°C90 %761 мм2.0 м/с5 %
    09:00Практически безоблачно+23°C66 %763 мм3.6 м/с5 %
    12:00Небольшая облачность+28°C62 %762 мм4.0 м/с5 %
    15:00Небольшая облачность+28°C67 %761 мм5.1 м/с5 %
    18:00Небольшая облачность+23°C89 %762 мм3.7 м/с5 %
    21:00Облачно с прояснениями+21°C91 %763 мм3.6 м/с5 %
  • 28июля
    Воскресенье
    +17°
    +30°
    Практически безоблачно
    ВремяПогодаТемператураВлажностьДавлениеВетер, м/сВероятность осадков
    00:00Небольшая облачность+20°C92 %763 мм4.3 м/с5 %
    03:00Ясно и безоблачно+19°C92 %762 мм4.7 м/с5 %
    06:00Ясно и безоблачно+19°C94 %762 мм3.1 м/с5 %
    09:00Ясно и безоблачно+24°C78 %763 мм4.4 м/с5 %
    12:00Ясно и безоблачно+29°C56 %762 мм5.2 м/с5 %
    15:00Практически безоблачно+29°C56 %760 мм6.6 м/с5 %
    18:00Ясно и безоблачно+24°C76 %761 мм5.6 м/с5 %
    21:00Ясно и безоблачно+22°C74 %762 мм5.1 м/с3 %
  • 29июля
    Понедельник
    +17°
    +32°
    Ясно и безоблачно
    ВремяПогодаТемператураВлажностьДавлениеВетер, м/сВероятность осадков
    00:00Ясно и безоблачно+21°C81 %761 мм5.8 м/с3 %
    03:00Ясно и безоблачно+20°C90 %760 мм3.8 м/с5 %
    06:00Ясно и безоблачно+18°C90 %761 мм1.9 м/с5 %
    09:00Ясно и безоблачно+25°C64 %762 мм3.5 м/с5 %
    12:00Ясно и безоблачно+30°C67 %761 мм4.1 м/с4 %
    15:00Ясно и безоблачно+26°C80 %760 мм6.6 м/с3 %
    18:00Практически безоблачно+22°C84 %762 мм5.6 м/с14 %
    21:00Практически безоблачно+20°C84 %763 мм5.0 м/с31 %
Мы используем cookies
Соглашаюсь